Time;durP1;ratioP1;P1;durP2;ratioP2;P2;SDS_P1;SDS_P2;PMS_P1;PMS_P2;Temp;Humidity;BMP_temperature;BMP_pressure;BME280_temperature;BME280_humidity;BME280_pressure;Samples;Min_cycle;Max_cycle;Signal;HPM_P1;HPM_P2
2021/11/30 00:00:28;;;;;;;14.90;6.63;;;6.10;99.90;;;;;;4933258;28;20462;-85
2021/11/30 00:03:00;;;;;;;8.63;6.17;;;6.10;99.90;;;;;;4917372;28;20482;-86
2021/11/30 00:05:27;;;;;;;9.33;5.87;;;6.10;99.90;;;;;;4936122;28;20568;-86
2021/11/30 00:07:56;;;;;;;7.60;5.10;;;6.10;99.90;;;;;;4914683;28;20458;-85
2021/11/30 00:10:47;;;;;;;12.27;6.00;;;6.10;99.90;;;;;;4919275;28;20854;-85
2021/11/30 00:13:23;;;;;;;10.20;6.40;;;6.10;99.90;;;;;;4918257;28;20551;-86
2021/11/30 00:15:52;;;;;;;10.73;6.10;;;6.10;99.90;;;;;;4929509;28;20433;-84
2021/11/30 00:18:26;;;;;;;11.27;5.63;;;6.10;99.90;;;;;;4921990;28;20505;-86
2021/11/30 00:20:55;;;;;;;9.80;6.77;;;6.00;99.90;;;;;;4920178;28;20547;-84
2021/11/30 00:23:22;;;;;;;6.80;5.87;;;6.00;99.90;;;;;;4917332;28;20459;-85
2021/11/30 00:25:58;;;;;;;12.07;6.50;;;6.00;99.90;;;;;;4916323;28;20548;-84
2021/11/30 00:28:31;;;;;;;10.63;6.50;;;6.00;99.90;;;;;;4917134;28;21017;-83
2021/11/30 00:31:16;;;;;;;11.90;7.53;;;6.00;99.90;;;;;;4931326;28;22584;-87
2021/11/30 00:33:49;;;;;;;12.50;7.07;;;5.90;99.90;;;;;;4922185;28;20459;-84
2021/11/30 00:36:26;;;;;;;10.47;6.33;;;5.90;99.90;;;;;;4921437;28;20501;-85
2021/11/30 00:39:02;;;;;;;8.43;6.17;;;5.90;99.90;;;;;;4921070;28;20516;-85
2021/11/30 00:44:51;;;;;;;10.23;6.43;;;6.00;99.90;;;;;;4931201;28;21900;-86
2021/11/30 00:47:30;;;;;;;12.27;7.90;;;6.00;99.90;;;;;;4919705;28;20554;-84
2021/11/30 00:49:58;;;;;;;10.83;6.40;;;6.00;99.90;;;;;;4915802;28;20466;-85
2021/11/30 00:52:26;;;;;;;15.60;7.00;;;6.00;99.90;;;;;;4909748;28;20575;-86
2021/11/30 00:54:53;;;;;;;10.67;6.97;;;6.00;99.90;;;;;;4926154;28;20472;-83
2021/11/30 00:57:22;;;;;;;13.30;7.13;;;5.90;99.90;;;;;;4948570;28;20485;-85
2021/11/30 00:59:52;;;;;;;10.57;7.07;;;6.00;99.90;;;;;;4927290;28;20499;-85
2021/11/30 01:02:20;;;;;;;13.83;7.93;;;6.00;99.90;;;;;;4910974;28;20797;-83
2021/11/30 01:04:48;;;;;;;8.00;5.70;;;6.00;99.90;;;;;;4935630;28;21136;-85
2021/11/30 01:07:15;;;;;;;12.03;7.20;;;6.00;99.90;;;;;;4939482;28;20488;-84
2021/11/30 01:09:46;;;;;;;7.73;5.37;;;6.00;99.90;;;;;;4919400;28;20453;-87
2021/11/30 01:12:12;;;;;;;13.10;6.00;;;6.00;99.90;;;;;;4914020;28;20484;-84
2021/11/30 01:14:44;;;;;;;10.60;6.00;;;5.90;99.90;;;;;;4915160;28;20470;-86
2021/11/30 01:17:13;;;;;;;7.97;6.13;;;6.00;99.90;;;;;;4921202;28;20560;-85
2021/11/30 01:19:40;;;;;;;6.83;5.70;;;6.00;99.90;;;;;;4915407;28;20478;-86
2021/11/30 01:22:16;;;;;;;7.63;5.40;;;6.00;99.90;;;;;;4915404;28;21221;-85
2021/11/30 01:24:43;;;;;;;9.23;5.87;;;6.00;99.90;;;;;;4915188;28;20484;-82
2021/11/30 01:27:10;;;;;;;8.30;5.00;;;6.00;99.90;;;;;;4909380;28;20491;-86
2021/11/30 01:29:37;;;;;;;6.90;5.23;;;6.00;99.90;;;;;;4929389;28;20545;-86
2021/11/30 01:32:07;;;;;;;6.10;4.43;;;6.10;99.90;;;;;;4914082;28;20549;-85
2021/11/30 01:34:37;;;;;;;7.83;5.47;;;6.20;99.90;;;;;;4903858;28;20457;-84
2021/11/30 01:37:04;;;;;;;8.80;5.37;;;6.20;99.90;;;;;;4915349;28;20573;-84
2021/11/30 01:39:36;;;;;;;7.07;5.23;;;6.10;99.70;;;;;;4926989;28;20497;-85
2021/11/30 01:42:04;;;;;;;7.40;4.40;;;6.00;99.90;;;;;;4929481;28;20505;-84
2021/11/30 01:44:47;;;;;;;5.27;4.00;;;6.00;99.90;;;;;;4910970;28;20488;-85
2021/11/30 01:50:16;;;;;;;5.30;3.73;;;6.00;99.90;;;;;;4931827;28;20448;-83
2021/11/30 01:52:49;;;;;;;8.23;4.30;;;6.00;99.90;;;;;;4913918;28;21545;-85
2021/11/30 01:55:27;;;;;;;8.90;4.03;;;6.10;99.70;;;;;;4912170;28;22114;-86
2021/11/30 01:57:54;;;;;;;5.97;3.63;;;6.20;99.50;;;;;;4903146;28;20498;-85
2021/11/30 02:00:29;;;;;;;7.37;3.90;;;6.40;99.20;;;;;;4907071;28;20486;-86
2021/11/30 02:03:05;;;;;;;5.60;4.70;;;6.20;99.30;;;;;;4908353;28;20539;-86
2021/11/30 02:05:39;;;;;;;5.33;3.40;;;6.10;99.40;;;;;;4873715;28;20475;-85
2021/11/30 02:08:07;;;;;;;5.70;3.93;;;6.10;99.60;;;;;;4863174;28;20493;-85
2021/11/30 02:10:49;;;;;;;5.33;3.00;;;6.30;99.70;;;;;;4920998;28;20549;-86
2021/11/30 02:13:27;;;;;;;5.50;3.97;;;6.60;98.90;;;;;;4904843;28;20496;-84
2021/11/30 02:16:08;;;;;;;5.03;3.90;;;6.60;98.00;;;;;;4900139;28;21032;-85
2021/11/30 02:18:44;;;;;;;3.70;3.17;;;6.30;98.70;;;;;;4905625;28;20562;-85
2021/11/30 02:21:12;;;;;;;4.20;3.60;;;6.40;98.80;;;;;;4904123;28;20500;-87
2021/11/30 02:23:57;;;;;;;6.57;3.00;;;6.20;99.10;;;;;;4925891;28;20485;-86
2021/11/30 02:26:34;;;;;;;4.03;2.70;;;6.40;99.30;;;;;;4911346;28;20464;-87
2021/11/30 02:29:13;;;;;;;6.43;3.10;;;6.40;98.60;;;;;;4905932;28;20506;-86
2021/11/30 02:31:49;;;;;;;5.73;3.53;;;6.40;98.80;;;;;;4907491;28;20577;-84
2021/11/30 02:34:39;;;;;;;3.73;2.87;;;6.30;98.80;;;;;;4898695;28;20449;-84
2021/11/30 02:37:24;;;;;;;4.30;3.40;;;6.20;99.20;;;;;;4909590;28;20898;-86
2021/11/30 02:39:55;;;;;;;4.03;2.80;;;6.60;98.70;;;;;;4905238;28;20519;-84
2021/11/30 02:42:22;;;;;;;4.03;2.47;;;6.70;98.40;;;;;;4902643;28;20496;-86
2021/11/30 02:45:06;;;;;;;2.80;2.50;;;6.60;98.50;;;;;;4904971;28;20443;-86
2021/11/30 02:47:33;;;;;;;3.03;2.60;;;6.40;99.00;;;;;;4919547;28;20572;-87
2021/11/30 02:50:14;;;;;;;3.10;2.20;;;6.50;99.70;;;;;;4905065;28;20850;-84
2021/11/30 02:52:50;;;;;;;2.43;2.23;;;6.80;99.20;;;;;;4922345;28;20478;-85
2021/11/30 02:55:26;;;;;;;2.60;2.37;;;6.60;99.10;;;;;;4921262;28;20467;-84
2021/11/30 02:57:59;;;;;;;5.30;2.87;;;6.30;99.90;;;;;;4936409;28;21100;-84
2021/11/30 03:00:29;;;;;;;4.07;2.13;;;6.30;99.90;;;;;;4925316;28;20483;-83
2021/11/30 03:03:13;;;;;;;6.93;2.73;;;6.50;99.90;;;;;;4928818;28;20504;-85
2021/11/30 03:05:43;;;;;;;3.03;2.43;;;6.30;99.90;;;;;;4918969;28;20501;-84
2021/11/30 03:08:28;;;;;;;5.90;2.77;;;6.20;99.90;;;;;;4901675;28;20463;-84
2021/11/30 03:11:08;;;;;;;3.40;2.70;;;6.30;99.90;;;;;;4892519;28;20454;-85
2021/11/30 03:13:38;;;;;;;2.57;2.37;;;6.30;99.90;;;;;;4896267;28;22327;-85
2021/11/30 03:16:08;;;;;;;2.53;2.10;;;6.20;99.90;;;;;;4915114;28;21316;-85
2021/11/30 03:18:51;;;;;;;5.37;2.43;;;6.40;99.90;;;;;;4897722;28;20478;-86
2021/11/30 03:21:18;;;;;;;3.70;2.10;;;6.40;99.90;;;;;;4895154;28;21056;-87
2021/11/30 03:23:48;;;;;;;5.33;2.83;;;6.20;99.90;;;;;;4901993;28;20553;-86
2021/11/30 03:26:18;;;;;;;2.40;2.10;;;6.40;99.90;;;;;;4904320;28;20454;-86
2021/11/30 03:28:49;;;;;;;4.13;2.27;;;6.30;99.90;;;;;;4901829;28;20459;-85
2021/11/30 03:34:10;;;;;;;2.93;2.10;;;6.50;99.90;;;;;;4922711;28;20468;-85
2021/11/30 03:36:47;;;;;;;2.80;2.03;;;6.30;99.90;;;;;;4923590;28;20578;-84
2021/11/30 03:39:25;;;;;;;2.40;2.20;;;6.20;99.90;;;;;;4893617;28;20489;-85
2021/11/30 03:42:00;;;;;;;2.43;2.23;;;6.20;99.90;;;;;;4920269;28;21020;-86
2021/11/30 03:44:34;;;;;;;2.87;2.37;;;6.10;99.90;;;;;;4924158;28;22204;-86
2021/11/30 03:47:02;;;;;;;2.57;1.40;;;6.20;99.90;;;;;;4903009;28;20467;-84
2021/11/30 03:49:32;;;;;;;3.90;1.87;;;6.50;99.90;;;;;;4905712;28;20466;-86
2021/11/30 03:52:01;;;;;;;5.17;1.77;;;6.40;99.90;;;;;;4904998;28;20510;-85
2021/11/30 03:54:30;;;;;;;2.67;2.03;;;6.30;99.90;;;;;;4902702;28;20472;-85
2021/11/30 03:57:46;;;;;;;3.05;1.85;;;6.20;99.90;;;;;;5034746;27;1242493;-86
2021/11/30 04:00:16;;;;;;;2.30;1.30;;;6.40;99.90;;;;;;5040690;28;20218;-85
2021/11/30 04:02:43;;;;;;;2.30;2.10;;;6.50;99.90;;;;;;5025125;28;20976;-86
2021/11/30 04:05:19;;;;;;;3.40;2.03;;;6.50;99.90;;;;;;5045865;28;20742;-85
2021/11/30 04:07:50;;;;;;;4.20;2.17;;;6.40;99.90;;;;;;5022106;28;20444;-85
2021/11/30 04:10:19;;;;;;;3.60;2.13;;;6.40;99.90;;;;;;5037774;28;20499;-85
2021/11/30 04:12:50;;;;;;;2.77;2.53;;;6.50;99.90;;;;;;5022740;28;20498;-84
2021/11/30 04:15:21;;;;;;;3.40;3.10;;;6.50;99.90;;;;;;5019444;28;20475;-85
2021/11/30 04:17:51;;;;;;;3.77;2.77;;;6.40;99.90;;;;;;5022285;28;20473;-85
2021/11/30 04:20:19;;;;;;;3.20;3.00;;;6.40;99.90;;;;;;5023256;28;20908;-85
2021/11/30 04:22:50;;;;;;;5.53;3.07;;;6.40;99.90;;;;;;5019814;28;21362;-85
2021/11/30 04:25:22;;;;;;;3.43;2.90;;;6.20;99.90;;;;;;5021976;28;20981;-85
2021/11/30 04:27:50;;;;;;;2.77;2.37;;;6.20;99.90;;;;;;5026805;28;21008;-86
2021/11/30 04:30:27;;;;;;;;;;;;;;;;;;;;;
2021/11/30 04:32:55;;;;;;;2.80;2.40;;;6.30;99.90;;;;;;5040806;28;20489;-86
2021/11/30 04:35:26;;;;;;;2.13;1.93;;;6.20;99.90;;;;;;5026183;28;22759;-85
2021/11/30 04:38:15;;;;;;;1.30;1.20;;;6.40;99.90;;;;;;5021460;28;20444;-84
2021/11/30 04:40:57;;;;;;;1.50;1.40;;;6.20;99.90;;;;;;5037812;28;20566;-87
2021/11/30 04:43:34;;;;;;;1.60;1.50;;;6.10;99.90;;;;;;5042056;28;20536;-85
2021/11/30 04:46:13;;;;;;;2.10;1.00;;;6.20;99.90;;;;;;5041918;28;20558;-88
2021/11/30 04:48:52;;;;;;;0.70;0.70;;;6.30;99.90;;;;;;5065654;28;20529;-87
2021/11/30 04:51:20;;;;;;;1.40;0.87;;;6.30;99.90;;;;;;5075012;28;22008;-87
2021/11/30 04:53:46;;;;;;;0.90;0.90;;;6.20;99.90;;;;;;5054789;28;20450;-87
2021/11/30 04:56:16;;;;;;;0.93;0.83;;;6.20;99.90;;;;;;4984707;28;20527;-86
2021/11/30 04:58:44;;;;;;;1.23;0.77;;;6.20;99.90;;;;;;5052044;28;20465;-87
2021/11/30 05:01:11;;;;;;;1.07;1.00;;;6.20;99.90;;;;;;5069204;28;20473;-86
2021/11/30 05:03:41;;;;;;;2.10;1.90;;;6.20;99.90;;;;;;5043764;28;20565;-85
2021/11/30 05:06:08;;;;;;;1.40;1.30;;;6.20;99.90;;;;;;5051265;28;21407;-85
2021/11/30 05:08:37;;;;;;;1.40;1.30;;;6.20;99.90;;;;;;5020328;28;20526;-86
2021/11/30 05:11:04;;;;;;;1.60;1.10;;;6.30;99.90;;;;;;5038961;28;21008;-85
2021/11/30 05:13:31;;;;;;;1.33;1.07;;;6.30;99.90;;;;;;5046441;28;20491;-86
2021/11/30 05:15:58;;;;;;;1.50;1.40;;;6.30;99.90;;;;;;5020319;28;20490;-84
2021/11/30 05:18:25;;;;;;;1.00;1.00;;;6.30;99.90;;;;;;5019030;28;20449;-85
2021/11/30 05:20:53;;;;;;;1.30;1.20;;;6.30;99.90;;;;;;5040574;28;20501;-86
2021/11/30 05:23:32;;;;;;;1.70;0.97;;;6.40;99.90;;;;;;5027096;28;20459;-85
2021/11/30 05:26:02;;;;;;;3.27;1.13;;;6.40;99.90;;;;;;5021639;28;20523;-86
2021/11/30 05:28:30;;;;;;;1.40;1.30;;;6.40;99.90;;;;;;5020931;28;20459;-87
2021/11/30 05:31:03;;;;;;;1.80;1.27;;;6.40;99.90;;;;;;5024009;28;20447;-86
2021/11/30 05:33:31;;;;;;;1.23;1.17;;;6.40;99.90;;;;;;5038282;28;20475;-89
2021/11/30 05:36:04;;;;;;;1.83;1.70;;;6.40;99.90;;;;;;5035941;28;20488;-88
2021/11/30 05:38:33;;;;;;;1.20;1.10;;;6.40;99.90;;;;;;5052388;28;20460;-87
2021/11/30 05:41:00;;;;;;;1.37;1.30;;;6.40;99.90;;;;;;5021960;28;20482;-88
2021/11/30 05:43:27;;;;;;;1.30;1.20;;;6.40;99.90;;;;;;5037761;28;22085;-84
2021/11/30 05:45:57;;;;;;;0.70;0.70;;;6.40;99.90;;;;;;5036831;28;21156;-84
2021/11/30 05:48:26;;;;;;;1.67;1.27;;;6.40;99.90;;;;;;5020213;28;20472;-83
2021/11/30 05:50:57;;;;;;;1.00;1.00;;;6.50;99.90;;;;;;5018449;28;20538;-86
2021/11/30 05:53:24;;;;;;;1.53;1.23;;;6.50;99.90;;;;;;5015814;28;21317;-86
2021/11/30 05:55:58;;;;;;;2.77;1.53;;;6.50;99.90;;;;;;5026212;28;20584;-84
2021/11/30 05:58:36;;;;;;;1.83;1.60;;;6.50;99.90;;;;;;5019205;28;20942;-86
2021/11/30 06:01:23;;;;;;;2.00;1.90;;;6.50;99.90;;;;;;5033390;28;20454;-84
2021/11/30 06:06:22;;;;;;;3.60;1.63;;;6.50;99.90;;;;;;5035206;28;20447;-84
2021/11/30 06:08:53;;;;;;;3.10;2.00;;;6.60;99.90;;;;;;5017465;28;20862;-85
2021/11/30 06:11:23;;;;;;;2.27;2.10;;;6.60;99.90;;;;;;5015990;28;20488;-86
2021/11/30 06:14:04;;;;;;;5.87;2.10;;;6.60;99.90;;;;;;5015677;28;21035;-85
2021/11/30 06:16:31;;;;;;;4.00;2.40;;;6.60;99.90;;;;;;5015437;28;20633;-86
2021/11/30 06:18:58;;;;;;;3.63;2.80;;;6.60;99.90;;;;;;5043822;28;20595;-85
2021/11/30 06:21:25;;;;;;;1.87;1.77;;;6.60;99.90;;;;;;5043371;28;20479;-85
2021/11/30 06:23:58;;;;;;;2.13;2.03;;;6.60;99.90;;;;;;5041384;28;20537;-86
2021/11/30 06:26:25;;;;;;;2.07;1.97;;;6.60;99.90;;;;;;5018812;28;20517;-86
2021/11/30 06:28:52;;;;;;;2.60;2.50;;;6.60;99.90;;;;;;5034429;28;20535;-86
2021/11/30 06:47:17;;;;;;;3.30;2.77;;;6.80;99.90;;;;;;5031866;28;20431;-85
2021/11/30 06:49:44;;;;;;;2.63;2.43;;;6.90;99.90;;;;;;5016034;28;20574;-86
2021/11/30 06:52:11;;;;;;;3.77;3.27;;;6.90;99.90;;;;;;5033957;28;20495;-87
2021/11/30 06:54:54;;;;;;;3.87;2.67;;;6.90;99.90;;;;;;5023359;28;20515;-86
2021/11/30 06:57:30;;;;;;;2.40;2.20;;;7.00;99.90;;;;;;5026616;28;20491;-84
2021/11/30 07:00:03;;;;;;;2.50;2.40;;;7.00;99.90;;;;;;5028131;28;20549;-87
2021/11/30 07:02:31;;;;;;;2.60;2.40;;;7.10;99.90;;;;;;5046947;28;20504;-86
2021/11/30 07:05:19;;;;;;;3.73;2.60;;;7.10;99.90;;;;;;5025052;28;20455;-87
2021/11/30 07:10:52;;;;;;;2.63;2.43;;;7.20;99.90;;;;;;5037291;28;20478;-85
2021/11/30 07:13:22;;;;;;;2.47;2.27;;;7.30;99.90;;;;;;5022391;28;20544;-86
2021/11/30 07:15:55;;;;;;;2.00;1.70;;;7.30;99.90;;;;;;5019364;28;20496;-87
2021/11/30 07:18:24;;;;;;;2.60;2.47;;;7.40;99.90;;;;;;5017642;28;20491;-88
2021/11/30 07:21:05;;;;;;;2.20;2.03;;;7.40;99.90;;;;;;5008031;28;20439;-86
2021/11/30 07:23:32;;;;;;;2.43;1.80;;;7.40;99.90;;;;;;5015441;28;20494;-86
2021/11/30 07:33:07;;;;;;;2.10;2.00;;;7.50;99.90;;;;;;5019487;28;20512;-88
2021/11/30 07:35:34;;;;;;;1.97;1.87;;;7.50;99.90;;;;;;5034289;28;20454;-86
2021/11/30 07:38:10;;;;;;;1.80;1.70;;;7.60;99.90;;;;;;5015114;28;20529;-88
2021/11/30 08:51:05;;;;;;;2.43;2.23;;;8.20;99.90;;;;;;4058810;26;20476;-85
2021/11/30 08:53:36;;;;;;;2.40;2.20;;;8.30;99.90;;;;;;4924578;28;21720;-88
2021/11/30 08:56:11;;;;;;;3.00;2.23;;;8.30;99.90;;;;;;4924388;28;20442;-86
2021/11/30 08:58:38;;;;;;;2.20;2.10;;;8.30;99.90;;;;;;4918140;28;20572;-86
2021/11/30 09:01:04;;;;;;;2.07;1.83;;;8.30;99.90;;;;;;4922764;28;20477;-87
2021/11/30 09:03:32;;;;;;;2.03;1.93;;;8.30;99.90;;;;;;4920855;28;21546;-87
2021/11/30 09:06:01;;;;;;;1.77;1.67;;;8.30;99.90;;;;;;4924518;28;20461;-86
2021/11/30 09:08:28;;;;;;;1.93;1.83;;;8.30;99.90;;;;;;4923667;28;21457;-85
2021/11/30 09:11:01;;;;;;;2.80;2.57;;;8.30;99.90;;;;;;4924858;28;20473;-86
2021/11/30 09:13:36;;;;;;;2.20;2.07;;;8.30;99.90;;;;;;4922866;28;20465;-85
2021/11/30 09:16:12;;;;;;;3.63;2.20;;;8.30;99.90;;;;;;4930948;28;20465;-86
2021/11/30 09:18:45;;;;;;;2.50;2.07;;;8.30;99.90;;;;;;4924857;28;20492;-85
2021/11/30 09:21:12;;;;;;;2.53;2.33;;;8.40;99.90;;;;;;4921700;28;20979;-87
2021/11/30 09:23:45;;;;;;;2.43;2.13;;;8.40;99.90;;;;;;4923625;28;20462;-85
2021/11/30 09:26:15;;;;;;;2.80;2.57;;;8.40;99.90;;;;;;4922807;28;20529;-86
2021/11/30 09:28:46;;;;;;;2.43;2.23;;;8.40;99.90;;;;;;4938940;28;20875;-85
2021/11/30 09:31:16;;;;;;;2.53;2.33;;;8.40;99.90;;;;;;4923744;28;20571;-86
2021/11/30 09:33:58;;;;;;;2.30;2.20;;;8.40;99.90;;;;;;4921374;28;20468;-87
2021/11/30 09:36:25;;;;;;;2.43;2.13;;;8.40;99.90;;;;;;4923121;28;20473;-87
2021/11/30 09:38:55;;;;;;;5.47;2.50;;;8.40;99.90;;;;;;4919679;28;20542;-86
2021/11/30 09:41:37;;;;;;;2.40;2.20;;;8.50;99.90;;;;;;4920747;28;20549;-86
2021/11/30 09:44:20;;;;;;;1.63;1.53;;;8.50;99.90;;;;;;4916956;28;20544;-86
2021/11/30 09:47:10;;;;;;;2.70;2.50;;;8.50;99.90;;;;;;4906191;28;21879;-87
2021/11/30 09:49:40;;;;;;;2.60;2.40;;;8.50;99.90;;;;;;4915280;28;20500;-86
2021/11/30 09:52:12;;;;;;;3.03;2.80;;;8.50;99.90;;;;;;4917202;28;20472;-87
2021/11/30 09:54:41;;;;;;;2.40;2.30;;;8.50;99.90;;;;;;4915249;28;20651;-85
2021/11/30 09:57:16;;;;;;;2.83;2.57;;;8.50;99.90;;;;;;4916171;28;21944;-86
2021/11/30 09:59:47;;;;;;;1.90;1.80;;;8.60;99.90;;;;;;4913058;28;20546;-84
2021/11/30 10:02:20;;;;;;;2.47;2.27;;;8.60;99.90;;;;;;4920407;28;20495;-86
2021/11/30 10:04:50;;;;;;;2.77;2.57;;;8.60;99.90;;;;;;4922690;28;20513;-88
2021/11/30 10:07:51;;;;;;;2.13;2.03;;;8.60;99.90;;;;;;4919658;28;20498;-86
2021/11/30 10:10:30;;;;;;;2.10;1.87;;;8.70;99.90;;;;;;4936939;28;20473;-86
2021/11/30 10:13:13;;;;;;;2.60;2.40;;;8.70;99.90;;;;;;4924367;28;20488;-85
2021/11/30 10:15:54;;;;;;;1.83;1.73;;;8.70;99.90;;;;;;4914892;28;20461;-85
2021/11/30 10:18:45;;;;;;;1.83;1.73;;;8.70;99.90;;;;;;4919677;28;20575;-86
2021/11/30 10:21:21;;;;;;;1.37;1.27;;;8.70;99.90;;;;;;4938155;28;20489;-86
2021/11/30 10:23:59;;;;;;;1.67;1.57;;;8.80;99.90;;;;;;4929209;28;20461;-87
2021/11/30 10:26:41;;;;;;;1.67;1.57;;;8.80;99.90;;;;;;4923040;28;21029;-86
2021/11/30 10:29:12;;;;;;;1.70;1.47;;;8.90;99.90;;;;;;4922107;28;20473;-89
2021/11/30 10:31:45;;;;;;;1.40;1.30;;;8.90;99.90;;;;;;4925948;28;20494;-86
2021/11/30 10:34:29;;;;;;;2.40;1.57;;;8.90;99.90;;;;;;4925895;28;20457;-87
2021/11/30 10:37:05;;;;;;;2.33;1.63;;;8.90;99.90;;;;;;4926931;28;21628;-88
2021/11/30 10:39:39;;;;;;;1.40;1.30;;;9.00;99.90;;;;;;4924436;28;22679;-86
2021/11/30 10:43:07;;;;;;;1.37;1.30;;;9.00;99.90;;;;;;4921764;28;21054;-89
2021/11/30 10:45:45;;;;;;;1.97;1.77;;;9.00;99.90;;;;;;4919463;28;20580;-85
2021/11/30 10:48:44;;;;;;;1.67;1.57;;;9.10;99.90;;;;;;4937884;28;20469;-86
2021/11/30 10:51:42;;;;;;;1.83;1.73;;;9.00;99.90;;;;;;4921185;28;20472;-88
2021/11/30 10:54:21;;;;;;;1.90;1.77;;;9.00;99.90;;;;;;4921981;28;20477;-85
2021/11/30 10:57:02;;;;;;;1.90;1.80;;;9.00;99.90;;;;;;4919910;28;20463;-86
2021/11/30 10:59:48;;;;;;;1.70;1.53;;;9.00;99.90;;;;;;4916462;28;20454;-86
2021/11/30 11:02:14;;;;;;;2.63;1.80;;;9.00;99.90;;;;;;5168666;23;20567;-88
2021/11/30 11:04:48;;;;;;;1.63;1.53;;;9.10;99.90;;;;;;4924078;28;20496;-84
2021/11/30 11:07:28;;;;;;;2.17;2.03;;;9.10;99.90;;;;;;4938090;28;20445;-86
2021/11/30 11:09:56;;;;;;;1.87;1.60;;;9.10;99.90;;;;;;4965439;28;20485;-85
2021/11/30 11:12:43;;;;;;;2.73;1.83;;;9.10;99.90;;;;;;5001390;23;20496;-87
2021/11/30 11:16:03;;;;;;;1.80;1.70;;;9.10;99.90;;;;;;4972973;28;20440;-86
2021/11/30 11:18:31;;;;;;;1.60;1.50;;;9.10;99.90;;;;;;4959111;28;20484;-85
2021/11/30 11:23:30;;;;;;;1.57;1.47;;;9.10;99.90;;;;;;4926868;28;20496;-87
2021/11/30 11:26:28;;;;;;;1.43;1.33;;;9.10;99.90;;;;;;4910752;28;20446;-87
2021/11/30 11:29:19;;;;;;;2.30;1.20;;;9.10;99.90;;;;;;4908379;28;20521;-84
2021/11/30 11:32:27;;;;;;;1.40;1.30;;;9.10;99.90;;;;;;4909035;28;20513;-88
2021/11/30 11:34:54;;;;;;;1.50;1.40;;;9.10;99.90;;;;;;4908286;28;20465;-85
2021/11/30 11:37:30;;;;;;;1.10;1.10;;;9.10;99.90;;;;;;4913888;28;20512;-84
2021/11/30 11:39:57;;;;;;;1.07;1.07;;;9.20;99.90;;;;;;4915566;28;20459;-85
2021/11/30 11:46:18;;;;;;;1.33;1.23;;;9.20;99.90;;;;;;4932675;28;20432;-86
2021/11/30 11:49:04;;;;;;;3.60;1.13;;;9.20;99.90;;;;;;4913820;28;20481;-86
2021/11/30 11:51:39;;;;;;;1.10;1.10;;;9.20;99.90;;;;;;5069874;23;20443;-86
2021/11/30 11:58:02;;;;;;;1.17;1.00;;;9.30;99.90;;;;;;4949362;28;20488;-87
2021/11/30 12:01:15;;;;;;;1.10;1.10;;;9.30;99.90;;;;;;4943841;28;20953;-87
2021/11/30 12:04:00;;;;;;;1.73;1.43;;;9.20;99.90;;;;;;4926163;28;21717;-86
2021/11/30 12:06:58;;;;;;;1.30;1.20;;;9.30;99.90;;;;;;4915246;28;20481;-84
2021/11/30 12:10:29;;;;;;;1.10;1.00;;;9.30;99.90;;;;;;4872310;28;20459;-86
2021/11/30 12:20:25;;;;;;;1.20;1.10;;;9.30;99.90;;;;;;4935135;28;20447;-86
2021/11/30 12:31:10;;;;;;;1.30;1.20;;;9.40;99.90;;;;;;4811064;29;20454;-88
2021/11/30 12:34:35;;;;;;;1.00;1.00;;;9.40;99.90;;;;;;4824605;29;20569;-87
2021/11/30 12:41:00;;;;;;;1.83;1.30;;;9.40;99.90;;;;;;4876457;28;20457;-84
2021/11/30 12:43:46;;;;;;;1.40;1.07;;;9.40;99.90;;;;;;4924679;28;20579;-86
2021/11/30 12:46:51;;;;;;;1.30;1.27;;;9.40;99.90;;;;;;4922927;28;20533;-85
2021/11/30 12:49:35;;;;;;;1.47;1.30;;;9.40;99.90;;;;;;4925966;28;20461;-87
2021/11/30 12:52:06;;;;;;;1.10;1.00;;;9.50;99.90;;;;;;4922121;28;20562;-85
2021/11/30 12:54:41;;;;;;;1.50;1.40;;;9.50;99.90;;;;;;4922064;28;20472;-87
2021/11/30 12:57:28;;;;;;;1.17;1.07;;;9.50;99.90;;;;;;4917469;28;20475;-85
2021/11/30 13:00:35;;;;;;;1.03;0.93;;;9.50;99.90;;;;;;4934390;28;20463;-86
2021/11/30 13:03:43;;;;;;;1.03;1.03;;;9.50;99.90;;;;;;4875510;29;20448;-86
2021/11/30 13:07:12;;;;;;;1.27;1.00;;;9.50;99.90;;;;;;4874293;29;20476;-85
2021/11/30 13:10:01;;;;;;;1.30;1.07;;;9.50;99.90;;;;;;4860923;29;20617;-87
2021/11/30 13:13:18;;;;;;;1.33;1.33;;;9.50;99.90;;;;;;5118860;23;20545;-86
2021/11/30 13:16:34;;;;;;;1.47;1.37;;;9.50;99.90;;;;;;4943096;28;20464;-86
2021/11/30 13:19:40;;;;;;;1.47;1.37;;;9.50;99.90;;;;;;4940938;28;20488;-87
2021/11/30 13:22:28;;;;;;;1.17;1.07;;;9.50;99.90;;;;;;4945295;28;20478;-86
2021/11/30 13:38:55;;;;;;;1.50;1.40;;;9.60;99.90;;;;;;5047228;23;20487;-87
2021/11/30 13:42:04;;;;;;;1.70;1.60;;;9.60;99.90;;;;;;4959179;28;20610;-88
2021/11/30 13:44:31;;;;;;;2.10;2.00;;;9.60;99.90;;;;;;4934930;28;20477;-86
2021/11/30 13:47:21;;;;;;;1.93;1.83;;;9.60;99.90;;;;;;4944240;28;20469;-87
2021/11/30 13:50:17;;;;;;;2.27;2.13;;;9.70;99.90;;;;;;4941709;28;20515;-86
2021/11/30 13:53:38;;;;;;;2.23;2.13;;;9.70;99.90;;;;;;4943840;28;20463;-86
2021/11/30 14:04:16;;;;;;;;;;;;;;;;;;;;;
2021/11/30 14:07:19;;;;;;;3.20;3.00;;;9.80;99.90;;;;;;4864405;29;20462;-87
2021/11/30 14:10:31;;;;;;;3.40;3.20;;;9.80;99.90;;;;;;4873744;29;20475;-87
2021/11/30 14:13:49;;;;;;;3.80;3.50;;;9.80;99.90;;;;;;4859868;29;20482;-88
2021/11/30 14:20:55;;;;;;;2.77;2.57;;;9.80;99.90;;;;;;4860592;29;20733;-86
2021/11/30 14:28:09;;;;;;;3.90;3.60;;;9.90;99.90;;;;;;4798017;29;20483;-86
2021/11/30 14:34:49;;;;;;;3.27;2.97;;;9.90;99.90;;;;;;4817870;29;21346;-87
2021/11/30 14:38:26;;;;;;;2.90;2.70;;;9.90;99.90;;;;;;4771478;29;20448;-87
2021/11/30 14:49:21;;;;;;;;;;;;;;;;;;;;;
2021/11/30 14:52:33;;;;;;;3.07;2.83;;;9.90;99.90;;;;;;5048259;23;20553;-85
2021/11/30 14:59:06;;;;;;;3.70;3.40;;;10.00;99.90;;;;;;4935692;28;20497;-86
2021/11/30 15:01:58;;;;;;;3.67;3.30;;;10.00;99.90;;;;;;4940581;28;21759;-85
2021/11/30 15:05:28;;;;;;;3.03;2.73;;;10.00;99.90;;;;;;4928469;28;20462;-89
2021/11/30 15:08:32;;;;;;;2.93;2.73;;;10.00;99.90;;;;;;4877995;29;20457;-86
2021/11/30 15:11:24;;;;;;;3.33;3.10;;;9.90;99.90;;;;;;4875209;29;20523;-85
2021/11/30 15:14:23;;;;;;;3.50;3.30;;;10.00;99.90;;;;;;4872853;29;20470;-87
2021/11/30 15:17:11;;;;;;;3.53;3.30;;;9.90;99.90;;;;;;4910234;28;20461;-88
2021/11/30 15:19:49;;;;;;;3.13;2.93;;;10.00;99.90;;;;;;4889992;29;20515;-86
2021/11/30 15:22:35;;;;;;;4.17;3.87;;;10.00;99.90;;;;;;4874404;29;20617;-87
2021/11/30 15:25:13;;;;;;;3.67;3.23;;;10.00;99.90;;;;;;4875100;29;20469;-87
2021/11/30 15:27:44;;;;;;;3.20;3.00;;;10.00;99.90;;;;;;4871255;29;20559;-87
2021/11/30 15:30:28;;;;;;;4.10;3.30;;;10.00;99.90;;;;;;4882687;29;20551;-87
2021/11/30 15:33:25;;;;;;;3.53;3.27;;;10.00;99.90;;;;;;4883140;29;20583;-86
2021/11/30 15:35:58;;;;;;;4.57;3.77;;;10.00;99.90;;;;;;4881730;29;20459;-87
2021/11/30 15:38:26;;;;;;;3.43;3.13;;;10.00;99.90;;;;;;4890267;29;20493;-87
2021/11/30 15:40:55;;;;;;;3.67;3.37;;;10.00;99.90;;;;;;4876732;29;20472;-88
2021/11/30 15:46:13;;;;;;;3.00;2.80;;;10.00;99.90;;;;;;4926694;28;20655;-86
2021/11/30 15:48:50;;;;;;;3.13;2.93;;;10.10;99.90;;;;;;4932472;28;20552;-88
2021/11/30 15:51:22;;;;;;;3.47;3.20;;;10.10;99.90;;;;;;4933125;28;20869;-86
2021/11/30 15:53:58;;;;;;;4.77;3.50;;;10.10;99.90;;;;;;4933373;28;20540;-86
2021/11/30 15:59:26;;;;;;;3.40;3.10;;;10.10;99.90;;;;;;4940907;28;20495;-87
2021/11/30 16:01:55;;;;;;;3.40;3.10;;;10.10;99.90;;;;;;4937574;28;20887;-85
2021/11/30 16:04:24;;;;;;;3.27;2.97;;;10.10;99.90;;;;;;4957074;28;20505;-86
2021/11/30 16:07:00;;;;;;;3.50;3.20;;;10.10;99.90;;;;;;4955851;28;20456;-87
2021/11/30 16:09:27;;;;;;;4.10;3.80;;;10.10;99.90;;;;;;4953456;28;20568;-88
2021/11/30 16:12:00;;;;;;;3.33;3.10;;;10.10;99.90;;;;;;4932612;28;20555;-85
2021/11/30 16:14:27;;;;;;;3.80;3.47;;;10.10;99.90;;;;;;4931585;28;21032;-86
2021/11/30 16:16:59;;;;;;;3.60;3.30;;;10.10;99.90;;;;;;4927267;28;20468;-88
2021/11/30 16:19:38;;;;;;;4.13;3.73;;;10.10;99.90;;;;;;4930931;28;20496;-86
2021/11/30 16:22:13;;;;;;;3.70;3.40;;;10.10;99.90;;;;;;4930349;28;20499;-87
2021/11/30 16:24:52;;;;;;;4.40;4.00;;;10.10;99.90;;;;;;4930179;28;20565;-86
2021/11/30 16:27:19;;;;;;;4.53;4.10;;;10.20;99.90;;;;;;4926964;28;20457;-87
2021/11/30 16:29:49;;;;;;;4.67;4.30;;;10.20;99.90;;;;;;4891234;28;20975;-86
2021/11/30 16:32:23;;;;;;;5.10;3.60;;;10.10;99.90;;;;;;4900759;28;20487;-87
2021/11/30 16:34:58;;;;;;;4.40;3.60;;;10.10;99.90;;;;;;4928709;28;20444;-87
2021/11/30 16:37:26;;;;;;;4.37;3.97;;;10.20;99.90;;;;;;4928736;28;20576;-86
2021/11/30 16:39:53;;;;;;;4.27;3.87;;;10.10;99.90;;;;;;4928447;28;20563;-87
2021/11/30 16:42:24;;;;;;;4.20;3.80;;;10.10;99.90;;;;;;4930535;28;20525;-86
2021/11/30 16:45:00;;;;;;;3.70;3.40;;;10.10;99.90;;;;;;4931221;28;20458;-86
2021/11/30 16:47:33;;;;;;;4.23;3.83;;;10.10;99.90;;;;;;4931973;28;20465;-87
2021/11/30 16:50:17;;;;;;;4.13;3.73;;;10.20;99.90;;;;;;4890178;28;20955;-87
2021/11/30 16:53:06;;;;;;;;;;;;;;;;;;;;;
2021/11/30 16:55:41;;;;;;;5.83;4.20;;;10.20;99.90;;;;;;4920701;28;20469;-87
2021/11/30 16:58:51;;;;;;;4.47;4.17;;;10.20;99.90;;;;;;4904430;28;20457;-87
2021/11/30 17:01:20;;;;;;;4.07;3.77;;;10.20;99.90;;;;;;4966191;23;20477;-86
2021/11/30 17:03:55;;;;;;;4.20;3.80;;;10.20;99.90;;;;;;4926792;28;20474;-85